sensor_id;sensor_type;location;lat;lon;timestamp;temperature;humidity
47382;DHT22;33128;51.580;5.170;2023-06-10T00:02:05;24.10;96.30
47382;DHT22;33128;51.580;5.170;2023-06-10T00:04:31;24.20;96.60
47382;DHT22;33128;51.580;5.170;2023-06-10T00:06:56;24.10;96.70
47382;DHT22;33128;51.580;5.170;2023-06-10T00:09:22;24.00;96.10
47382;DHT22;33128;51.580;5.170;2023-06-10T00:11:48;24.00;96.40
47382;DHT22;33128;51.580;5.170;2023-06-10T00:14:13;24.00;97.20
47382;DHT22;33128;51.580;5.170;2023-06-10T00:16:39;24.00;97.60
47382;DHT22;33128;51.580;5.170;2023-06-10T00:19:05;23.90;97.10
47382;DHT22;33128;51.580;5.170;2023-06-10T00:21:33;23.90;96.80
47382;DHT22;33128;51.580;5.170;2023-06-10T00:24:04;23.90;96.50
47382;DHT22;33128;51.580;5.170;2023-06-10T00:26:30;23.90;97.00
47382;DHT22;33128;51.580;5.170;2023-06-10T00:28:56;23.90;96.70
47382;DHT22;33128;51.580;5.170;2023-06-10T00:31:22;23.80;96.80
47382;DHT22;33128;51.580;5.170;2023-06-10T00:33:47;23.80;97.40
47382;DHT22;33128;51.580;5.170;2023-06-10T00:36:13;23.80;97.70
47382;DHT22;33128;51.580;5.170;2023-06-10T00:38:38;23.80;97.30
47382;DHT22;33128;51.580;5.170;2023-06-10T00:41:06;23.70;96.80
47382;DHT22;33128;51.580;5.170;2023-06-10T00:43:32;23.70;97.30
47382;DHT22;33128;51.580;5.170;2023-06-10T00:45:58;23.70;97.40
47382;DHT22;33128;51.580;5.170;2023-06-10T00:48:24;23.60;96.80
47382;DHT22;33128;51.580;5.170;2023-06-10T00:50:50;23.60;97.20
47382;DHT22;33128;51.580;5.170;2023-06-10T00:53:16;23.60;97.30
47382;DHT22;33128;51.580;5.170;2023-06-10T00:55:43;23.50;96.90
47382;DHT22;33128;51.580;5.170;2023-06-10T00:58:08;23.40;96.90
47382;DHT22;33128;51.580;5.170;2023-06-10T01:00:34;23.40;96.90
47382;DHT22;33128;51.580;5.170;2023-06-10T01:03:00;23.30;97.40
47382;DHT22;33128;51.580;5.170;2023-06-10T01:05:26;23.30;97.30
47382;DHT22;33128;51.580;5.170;2023-06-10T01:08:03;23.30;97.30
47382;DHT22;33128;51.580;5.170;2023-06-10T01:10:57;23.20;97.30
47382;DHT22;33128;51.580;5.170;2023-06-10T01:13:23;23.20;97.40
47382;DHT22;33128;51.580;5.170;2023-06-10T01:15:55;23.10;97.20
47382;DHT22;33128;51.580;5.170;2023-06-10T01:18:21;23.10;97.40
47382;DHT22;33128;51.580;5.170;2023-06-10T01:20:47;23.10;97.60
47382;DHT22;33128;51.580;5.170;2023-06-10T01:23:14;23.10;97.40
47382;DHT22;33128;51.580;5.170;2023-06-10T01:25:53;23.00;97.80
47382;DHT22;33128;51.580;5.170;2023-06-10T01:34:00;22.90;98.00
47382;DHT22;33128;51.580;5.170;2023-06-10T01:36:26;22.80;97.90
47382;DHT22;33128;51.580;5.170;2023-06-10T01:38:53;22.80;98.40
47382;DHT22;33128;51.580;5.170;2023-06-10T01:41:19;22.70;98.00
47382;DHT22;33128;51.580;5.170;2023-06-10T01:43:47;22.70;98.10
47382;DHT22;33128;51.580;5.170;2023-06-10T01:46:13;22.60;98.20
47382;DHT22;33128;51.580;5.170;2023-06-10T01:48:38;22.60;98.20
47382;DHT22;33128;51.580;5.170;2023-06-10T01:51:05;22.50;98.30
47382;DHT22;33128;51.580;5.170;2023-06-10T01:53:33;22.60;98.30
47382;DHT22;33128;51.580;5.170;2023-06-10T01:55:59;22.50;98.30
47382;DHT22;33128;51.580;5.170;2023-06-10T01:58:25;22.40;98.30
47382;DHT22;33128;51.580;5.170;2023-06-10T02:00:51;22.30;98.50
47382;DHT22;33128;51.580;5.170;2023-06-10T02:03:16;22.40;99.30
47382;DHT22;33128;51.580;5.170;2023-06-10T02:05:45;22.30;98.50
47382;DHT22;33128;51.580;5.170;2023-06-10T02:08:11;22.30;98.60
47382;DHT22;33128;51.580;5.170;2023-06-10T02:10:36;22.20;98.40
47382;DHT22;33128;51.580;5.170;2023-06-10T02:13:02;22.10;98.40
47382;DHT22;33128;51.580;5.170;2023-06-10T02:15:27;22.10;98.90
47382;DHT22;33128;51.580;5.170;2023-06-10T02:17:53;22.10;99.10
47382;DHT22;33128;51.580;5.170;2023-06-10T02:20:20;22.00;98.80
47382;DHT22;33128;51.580;5.170;2023-06-10T02:22:46;22.00;98.70
47382;DHT22;33128;51.580;5.170;2023-06-10T02:25:12;22.00;98.70
47382;DHT22;33128;51.580;5.170;2023-06-10T02:27:37;21.90;99.20
47382;DHT22;33128;51.580;5.170;2023-06-10T02:30:03;21.90;98.90
47382;DHT22;33128;51.580;5.170;2023-06-10T02:32:29;21.70;99.30
47382;DHT22;33128;51.580;5.170;2023-06-10T02:34:55;21.70;99.00
47382;DHT22;33128;51.580;5.170;2023-06-10T02:37:20;21.60;99.70
47382;DHT22;33128;51.580;5.170;2023-06-10T02:39:46;21.60;99.20
47382;DHT22;33128;51.580;5.170;2023-06-10T02:42:11;21.60;99.80
47382;DHT22;33128;51.580;5.170;2023-06-10T02:44:38;21.60;99.80
47382;DHT22;33128;51.580;5.170;2023-06-10T02:47:04;21.60;99.90
47382;DHT22;33128;51.580;5.170;2023-06-10T02:49:29;21.50;99.70
47382;DHT22;33128;51.580;5.170;2023-06-10T02:51:55;21.50;99.70
47382;DHT22;33128;51.580;5.170;2023-06-10T02:54:23;21.40;99.50
47382;DHT22;33128;51.580;5.170;2023-06-10T02:56:49;21.40;99.80
47382;DHT22;33128;51.580;5.170;2023-06-10T02:59:15;21.30;99.90
47382;DHT22;33128;51.580;5.170;2023-06-10T03:01:41;21.30;99.90
47382;DHT22;33128;51.580;5.170;2023-06-10T03:04:07;21.30;99.90
47382;DHT22;33128;51.580;5.170;2023-06-10T03:06:33;21.20;99.90
47382;DHT22;33128;51.580;5.170;2023-06-10T03:09:00;21.20;99.90
47382;DHT22;33128;51.580;5.170;2023-06-10T03:11:25;21.20;99.90
47382;DHT22;33128;51.580;5.170;2023-06-10T03:13:51;21.20;99.90
47382;DHT22;33128;51.580;5.170;2023-06-10T03:16:19;21.20;99.90
47382;DHT22;33128;51.580;5.170;2023-06-10T03:18:45;21.10;99.90
47382;DHT22;33128;51.580;5.170;2023-06-10T03:21:10;21.10;99.90
47382;DHT22;33128;51.580;5.170;2023-06-10T03:23:36;21.00;99.90
47382;DHT22;33128;51.580;5.170;2023-06-10T03:26:02;21.00;99.90
47382;DHT22;33128;51.580;5.170;2023-06-10T03:28:30;21.00;99.90
47382;DHT22;33128;51.580;5.170;2023-06-10T03:30:56;21.00;99.90
47382;DHT22;33128;51.580;5.170;2023-06-10T03:33:21;21.00;99.90
47382;DHT22;33128;51.580;5.170;2023-06-10T03:35:47;20.90;99.90
47382;DHT22;33128;51.580;5.170;2023-06-10T03:38:13;20.90;99.90
47382;DHT22;33128;51.580;5.170;2023-06-10T03:40:38;20.80;99.90
47382;DHT22;33128;51.580;5.170;2023-06-10T03:43:04;20.90;99.90
47382;DHT22;33128;51.580;5.170;2023-06-10T03:45:30;20.80;99.90
47382;DHT22;33128;51.580;5.170;2023-06-10T03:47:56;20.80;99.90
47382;DHT22;33128;51.580;5.170;2023-06-10T03:50:21;20.80;99.90
47382;DHT22;33128;51.580;5.170;2023-06-10T03:52:49;20.80;99.90
47382;DHT22;33128;51.580;5.170;2023-06-10T03:55:14;20.80;99.90
47382;DHT22;33128;51.580;5.170;2023-06-10T03:57:42;20.80;99.90
47382;DHT22;33128;51.580;5.170;2023-06-10T04:00:08;20.70;99.90
47382;DHT22;33128;51.580;5.170;2023-06-10T04:02:37;20.80;99.90
47382;DHT22;33128;51.580;5.170;2023-06-10T04:05:07;20.70;99.90
47382;DHT22;33128;51.580;5.170;2023-06-10T04:07:32;20.70;99.90
47382;DHT22;33128;51.580;5.170;2023-06-10T04:09:59;20.70;99.90
47382;DHT22;33128;51.580;5.170;2023-06-10T04:12:25;20.70;99.90
47382;DHT22;33128;51.580;5.170;2023-06-10T04:14:50;20.60;99.90
47382;DHT22;33128;51.580;5.170;2023-06-10T04:17:17;20.60;99.90
47382;DHT22;33128;51.580;5.170;2023-06-10T04:19:43;20.60;99.90
47382;DHT22;33128;51.580;5.170;2023-06-10T04:22:09;20.50;99.90
47382;DHT22;33128;51.580;5.170;2023-06-10T04:24:34;20.50;99.90
47382;DHT22;33128;51.580;5.170;2023-06-10T04:27:00;20.50;99.90
47382;DHT22;33128;51.580;5.170;2023-06-10T04:29:26;20.50;99.90
47382;DHT22;33128;51.580;5.170;2023-06-10T04:31:52;20.50;99.90
47382;DHT22;33128;51.580;5.170;2023-06-10T04:34:17;20.50;99.90
47382;DHT22;33128;51.580;5.170;2023-06-10T04:36:43;20.50;99.90
47382;DHT22;33128;51.580;5.170;2023-06-10T04:39:09;20.50;99.90
47382;DHT22;33128;51.580;5.170;2023-06-10T04:41:34;20.40;99.90
47382;DHT22;33128;51.580;5.170;2023-06-10T04:44:00;20.40;99.90
47382;DHT22;33128;51.580;5.170;2023-06-10T04:46:25;20.40;99.90
47382;DHT22;33128;51.580;5.170;2023-06-10T04:48:51;20.50;99.90
47382;DHT22;33128;51.580;5.170;2023-06-10T04:51:17;20.50;99.90
47382;DHT22;33128;51.580;5.170;2023-06-10T04:53:42;20.40;99.90
47382;DHT22;33128;51.580;5.170;2023-06-10T04:56:08;20.40;99.90
47382;DHT22;33128;51.580;5.170;2023-06-10T04:58:34;20.40;99.90
47382;DHT22;33128;51.580;5.170;2023-06-10T05:01:00;20.40;99.90
47382;DHT22;33128;51.580;5.170;2023-06-10T05:03:26;20.30;99.90
47382;DHT22;33128;51.580;5.170;2023-06-10T05:05:51;19.50;99.90
47382;DHT22;33128;51.580;5.170;2023-06-10T05:08:17;18.90;99.90
47382;DHT22;33128;51.580;5.170;2023-06-10T05:10:43;18.80;99.90
47382;DHT22;33128;51.580;5.170;2023-06-10T05:13:08;18.70;99.90
47382;DHT22;33128;51.580;5.170;2023-06-10T05:15:34;18.70;99.90
47382;DHT22;33128;51.580;5.170;2023-06-10T05:17:59;18.80;99.90
47382;DHT22;33128;51.580;5.170;2023-06-10T05:20:25;18.80;99.90
47382;DHT22;33128;51.580;5.170;2023-06-10T05:22:51;18.80;99.90
47382;DHT22;33128;51.580;5.170;2023-06-10T05:25:16;18.80;99.90
47382;DHT22;33128;51.580;5.170;2023-06-10T05:27:42;18.90;99.90
47382;DHT22;33128;51.580;5.170;2023-06-10T05:30:09;18.90;99.90
47382;DHT22;33128;51.580;5.170;2023-06-10T05:32:35;18.90;99.90
47382;DHT22;33128;51.580;5.170;2023-06-10T05:35:01;19.00;99.90
47382;DHT22;33128;51.580;5.170;2023-06-10T05:37:26;19.00;99.90
47382;DHT22;33128;51.580;5.170;2023-06-10T05:39:52;19.10;99.90
47382;DHT22;33128;51.580;5.170;2023-06-10T05:42:17;19.20;99.90
47382;DHT22;33128;51.580;5.170;2023-06-10T05:44:43;19.20;99.90
47382;DHT22;33128;51.580;5.170;2023-06-10T05:47:09;19.30;99.90
47382;DHT22;33128;51.580;5.170;2023-06-10T05:49:34;19.30;99.90
47382;DHT22;33128;51.580;5.170;2023-06-10T05:52:00;19.40;99.90
47382;DHT22;33128;51.580;5.170;2023-06-10T05:54:26;19.40;99.90
47382;DHT22;33128;51.580;5.170;2023-06-10T05:56:51;19.50;99.90
47382;DHT22;33128;51.580;5.170;2023-06-10T05:59:17;19.60;99.90
47382;DHT22;33128;51.580;5.170;2023-06-10T06:01:43;19.60;99.90
47382;DHT22;33128;51.580;5.170;2023-06-10T06:04:08;19.70;99.90
47382;DHT22;33128;51.580;5.170;2023-06-10T06:06:35;19.70;99.90
47382;DHT22;33128;51.580;5.170;2023-06-10T06:09:00;19.80;99.90
47382;DHT22;33128;51.580;5.170;2023-06-10T06:11:26;19.80;99.90
47382;DHT22;33128;51.580;5.170;2023-06-10T06:13:52;19.90;99.90
47382;DHT22;33128;51.580;5.170;2023-06-10T06:16:17;20.00;99.90
47382;DHT22;33128;51.580;5.170;2023-06-10T06:18:43;20.00;99.90
47382;DHT22;33128;51.580;5.170;2023-06-10T06:21:09;20.00;99.90
47382;DHT22;33128;51.580;5.170;2023-06-10T06:23:34;20.10;99.90
47382;DHT22;33128;51.580;5.170;2023-06-10T06:26:00;20.20;99.90
47382;DHT22;33128;51.580;5.170;2023-06-10T06:28:26;20.30;99.90
47382;DHT22;33128;51.580;5.170;2023-06-10T06:30:57;20.30;99.90
47382;DHT22;33128;51.580;5.170;2023-06-10T06:33:22;20.30;99.90
47382;DHT22;33128;51.580;5.170;2023-06-10T06:35:48;20.40;99.90
47382;DHT22;33128;51.580;5.170;2023-06-10T06:38:13;20.40;99.90
47382;DHT22;33128;51.580;5.170;2023-06-10T06:40:39;20.50;99.90
47382;DHT22;33128;51.580;5.170;2023-06-10T06:43:04;20.50;99.90
47382;DHT22;33128;51.580;5.170;2023-06-10T06:45:30;20.70;99.90
47382;DHT22;33128;51.580;5.170;2023-06-10T06:47:55;20.70;99.90
47382;DHT22;33128;51.580;5.170;2023-06-10T06:50:21;20.80;99.90
47382;DHT22;33128;51.580;5.170;2023-06-10T06:52:46;20.90;99.90
47382;DHT22;33128;51.580;5.170;2023-06-10T06:55:12;20.90;99.90
47382;DHT22;33128;51.580;5.170;2023-06-10T06:57:38;20.90;99.90
47382;DHT22;33128;51.580;5.170;2023-06-10T07:00:03;21.00;99.90
47382;DHT22;33128;51.580;5.170;2023-06-10T07:02:30;21.00;99.90
47382;DHT22;33128;51.580;5.170;2023-06-10T07:04:57;21.10;99.90
47382;DHT22;33128;51.580;5.170;2023-06-10T07:07:27;21.20;99.90
47382;DHT22;33128;51.580;5.170;2023-06-10T07:09:52;21.20;99.90
47382;DHT22;33128;51.580;5.170;2023-06-10T07:12:18;21.30;99.90
47382;DHT22;33128;51.580;5.170;2023-06-10T07:14:44;21.40;99.90
47382;DHT22;33128;51.580;5.170;2023-06-10T07:17:10;21.50;99.90
47382;DHT22;33128;51.580;5.170;2023-06-10T07:19:36;21.50;99.90
47382;DHT22;33128;51.580;5.170;2023-06-10T07:22:02;21.50;99.90
47382;DHT22;33128;51.580;5.170;2023-06-10T07:24:28;21.60;99.90
47382;DHT22;33128;51.580;5.170;2023-06-10T07:26:54;21.60;99.90
47382;DHT22;33128;51.580;5.170;2023-06-10T07:29:19;21.60;99.90
47382;DHT22;33128;51.580;5.170;2023-06-10T07:31:46;21.70;99.90
47382;DHT22;33128;51.580;5.170;2023-06-10T07:34:11;21.80;99.90
47382;DHT22;33128;51.580;5.170;2023-06-10T07:36:37;21.90;99.90
47382;DHT22;33128;51.580;5.170;2023-06-10T07:39:03;22.10;99.90
47382;DHT22;33128;51.580;5.170;2023-06-10T07:41:28;22.10;99.90
47382;DHT22;33128;51.580;5.170;2023-06-10T07:43:54;22.20;99.90
47382;DHT22;33128;51.580;5.170;2023-06-10T07:46:22;22.20;99.90
47382;DHT22;33128;51.580;5.170;2023-06-10T07:48:49;22.20;99.90
47382;DHT22;33128;51.580;5.170;2023-06-10T07:51:16;22.30;99.90
47382;DHT22;33128;51.580;5.170;2023-06-10T07:53:42;22.40;99.90
47382;DHT22;33128;51.580;5.170;2023-06-10T07:56:07;22.50;99.90
47382;DHT22;33128;51.580;5.170;2023-06-10T07:58:33;22.50;99.90
47382;DHT22;33128;51.580;5.170;2023-06-10T08:00:59;22.50;99.90
47382;DHT22;33128;51.580;5.170;2023-06-10T08:03:24;22.70;99.90
47382;DHT22;33128;51.580;5.170;2023-06-10T08:05:50;22.60;99.90
47382;DHT22;33128;51.580;5.170;2023-06-10T08:08:16;22.80;99.90
47382;DHT22;33128;51.580;5.170;2023-06-10T08:10:41;22.80;99.90
47382;DHT22;33128;51.580;5.170;2023-06-10T08:13:08;22.80;99.90
47382;DHT22;33128;51.580;5.170;2023-06-10T08:15:34;23.00;99.90
47382;DHT22;33128;51.580;5.170;2023-06-10T08:17:59;23.10;99.90
47382;DHT22;33128;51.580;5.170;2023-06-10T08:20:25;23.00;99.90
47382;DHT22;33128;51.580;5.170;2023-06-10T08:22:50;23.10;99.90
47382;DHT22;33128;51.580;5.170;2023-06-10T08:25:16;23.30;99.90
47382;DHT22;33128;51.580;5.170;2023-06-10T08:27:43;23.40;99.90
47382;DHT22;33128;51.580;5.170;2023-06-10T08:30:11;23.50;99.80
47382;DHT22;33128;51.580;5.170;2023-06-10T08:32:39;23.40;99.90
47382;DHT22;33128;51.580;5.170;2023-06-10T08:35:06;23.40;99.90
47382;DHT22;33128;51.580;5.170;2023-06-10T08:37:32;23.40;99.90
47382;DHT22;33128;51.580;5.170;2023-06-10T08:39:57;23.40;99.80
47382;DHT22;33128;51.580;5.170;2023-06-10T08:42:41;23.50;99.90
47382;DHT22;33128;51.580;5.170;2023-06-10T08:45:14;23.40;99.90
47382;DHT22;33128;51.580;5.170;2023-06-10T08:47:45;23.50;99.70
47382;DHT22;33128;51.580;5.170;2023-06-10T08:50:12;23.70;99.40
47382;DHT22;33128;51.580;5.170;2023-06-10T08:52:42;23.60;99.90
47382;DHT22;33128;51.580;5.170;2023-06-10T08:55:15;23.60;99.90
47382;DHT22;33128;51.580;5.170;2023-06-10T08:57:43;23.70;99.40
47382;DHT22;33128;51.580;5.170;2023-06-10T09:00:12;23.90;99.50
47382;DHT22;33128;51.580;5.170;2023-06-10T09:02:38;23.90;99.30
47382;DHT22;33128;51.580;5.170;2023-06-10T09:05:05;23.90;99.40
47382;DHT22;33128;51.580;5.170;2023-06-10T09:07:32;24.10;99.00
47382;DHT22;33128;51.580;5.170;2023-06-10T09:10:01;24.10;99.10
47382;DHT22;33128;51.580;5.170;2023-06-10T09:12:29;24.00;99.20
47382;DHT22;33128;51.580;5.170;2023-06-10T09:14:55;23.90;99.30
47382;DHT22;33128;51.580;5.170;2023-06-10T09:17:21;24.00;99.30
47382;DHT22;33128;51.580;5.170;2023-06-10T09:19:47;24.00;99.20
47382;DHT22;33128;51.580;5.170;2023-06-10T09:22:14;24.00;99.30
47382;DHT22;33128;51.580;5.170;2023-06-10T09:24:40;23.90;99.90
47382;DHT22;33128;51.580;5.170;2023-06-10T09:27:07;24.30;98.90
47382;DHT22;33128;51.580;5.170;2023-06-10T09:30:05;24.30;98.70
47382;DHT22;33128;51.580;5.170;2023-06-10T09:32:31;24.30;98.80
47382;DHT22;33128;51.580;5.170;2023-06-10T09:34:57;24.30;98.70
47382;DHT22;33128;51.580;5.170;2023-06-10T09:37:24;24.10;98.60
47382;DHT22;33128;51.580;5.170;2023-06-10T09:40:07;24.30;98.90
47382;DHT22;33128;51.580;5.170;2023-06-10T09:42:35;24.60;98.50
47382;DHT22;33128;51.580;5.170;2023-06-10T09:45:05;24.60;98.00
47382;DHT22;33128;51.580;5.170;2023-06-10T09:47:31;24.80;98.30
47382;DHT22;33128;51.580;5.170;2023-06-10T09:49:56;24.90;97.80
47382;DHT22;33128;51.580;5.170;2023-06-10T09:52:23;25.00;97.70
47382;DHT22;33128;51.580;5.170;2023-06-10T09:54:53;24.70;97.70
47382;DHT22;33128;51.580;5.170;2023-06-10T09:57:22;25.00;97.80
47382;DHT22;33128;51.580;5.170;2023-06-10T09:59:48;25.20;97.30
47382;DHT22;33128;51.580;5.170;2023-06-10T10:02:18;25.20;97.40
47382;DHT22;33128;51.580;5.170;2023-06-10T10:04:44;25.10;97.70
47382;DHT22;33128;51.580;5.170;2023-06-10T10:07:13;25.10;97.80
47382;DHT22;33128;51.580;5.170;2023-06-10T10:09:39;25.00;97.50
47382;DHT22;33128;51.580;5.170;2023-06-10T10:12:10;25.20;97.10
47382;DHT22;33128;51.580;5.170;2023-06-10T10:14:37;25.20;97.40
47382;DHT22;33128;51.580;5.170;2023-06-10T10:17:10;25.40;97.10
47382;DHT22;33128;51.580;5.170;2023-06-10T10:20:03;25.60;96.90
47382;DHT22;33128;51.580;5.170;2023-06-10T10:22:47;25.60;95.90
47382;DHT22;33128;51.580;5.170;2023-06-10T10:25:18;25.70;96.50
47382;DHT22;33128;51.580;5.170;2023-06-10T10:27:51;25.60;96.40
47382;DHT22;33128;51.580;5.170;2023-06-10T10:30:20;25.20;97.00
47382;DHT22;33128;51.580;5.170;2023-06-10T10:33:00;24.90;97.00
47382;DHT22;33128;51.580;5.170;2023-06-10T10:35:31;24.80;97.40
47382;DHT22;33128;51.580;5.170;2023-06-10T10:37:58;24.70;97.50
47382;DHT22;33128;51.580;5.170;2023-06-10T10:40:25;24.70;97.50
47382;DHT22;33128;51.580;5.170;2023-06-10T10:42:52;24.70;97.40
47382;DHT22;33128;51.580;5.170;2023-06-10T10:45:18;24.70;97.40
47382;DHT22;33128;51.580;5.170;2023-06-10T10:47:47;24.70;97.40
47382;DHT22;33128;51.580;5.170;2023-06-10T10:50:18;24.60;97.30
47382;DHT22;33128;51.580;5.170;2023-06-10T10:53:01;24.70;97.30
47382;DHT22;33128;51.580;5.170;2023-06-10T10:55:28;24.70;97.20
47382;DHT22;33128;51.580;5.170;2023-06-10T11:00:29;24.70;97.20
47382;DHT22;33128;51.580;5.170;2023-06-10T11:03:03;24.70;97.00
47382;DHT22;33128;51.580;5.170;2023-06-10T11:05:36;24.70;97.00
47382;DHT22;33128;51.580;5.170;2023-06-10T11:08:02;24.80;97.00
47382;DHT22;33128;51.580;5.170;2023-06-10T11:10:33;24.70;96.80
47382;DHT22;33128;51.580;5.170;2023-06-10T11:13:20;24.70;96.80
47382;DHT22;33128;51.580;5.170;2023-06-10T11:15:50;24.80;97.00
47382;DHT22;33128;51.580;5.170;2023-06-10T11:18:24;24.80;97.40
47382;DHT22;33128;51.580;5.170;2023-06-10T11:26:17;25.00;97.00
47382;DHT22;33128;51.580;5.170;2023-06-10T11:33:48;25.10;96.70
47382;DHT22;33128;51.580;5.170;2023-06-10T11:36:17;25.20;96.60
47382;DHT22;33128;51.580;5.170;2023-06-10T11:38:43;25.30;96.70
47382;DHT22;33128;51.580;5.170;2023-06-10T11:41:13;25.50;96.30
47382;DHT22;33128;51.580;5.170;2023-06-10T11:43:43;25.90;95.90
47382;DHT22;33128;51.580;5.170;2023-06-10T11:46:09;26.70;95.40
47382;DHT22;33128;51.580;5.170;2023-06-10T11:48:35;27.50;94.60
47382;DHT22;33128;51.580;5.170;2023-06-10T11:51:06;28.30;93.80
47382;DHT22;33128;51.580;5.170;2023-06-10T11:53:34;29.00;93.00
47382;DHT22;33128;51.580;5.170;2023-06-10T11:55:59;29.70;92.10
47382;DHT22;33128;51.580;5.170;2023-06-10T11:58:26;30.10;91.60
47382;DHT22;33128;51.580;5.170;2023-06-10T12:00:55;30.30;90.80
47382;DHT22;33128;51.580;5.170;2023-06-10T12:03:26;30.60;90.30
47382;DHT22;33128;51.580;5.170;2023-06-10T12:05:59;30.80;89.70
47382;DHT22;33128;51.580;5.170;2023-06-10T12:08:26;31.10;88.70
47382;DHT22;33128;51.580;5.170;2023-06-10T12:10:53;31.40;87.60
47382;DHT22;33128;51.580;5.170;2023-06-10T12:13:19;31.60;86.60
47382;DHT22;33128;51.580;5.170;2023-06-10T12:15:45;31.60;85.90
47382;DHT22;33128;51.580;5.170;2023-06-10T12:18:23;31.80;85.40
47382;DHT22;33128;51.580;5.170;2023-06-10T12:20:50;31.90;84.40
47382;DHT22;33128;51.580;5.170;2023-06-10T12:23:19;32.20;83.70
47382;DHT22;33128;51.580;5.170;2023-06-10T12:25:53;32.40;83.10
47382;DHT22;33128;51.580;5.170;2023-06-10T12:28:22;32.40;82.50
47382;DHT22;33128;51.580;5.170;2023-06-10T12:30:48;32.50;82.20
47382;DHT22;33128;51.580;5.170;2023-06-10T12:33:21;32.60;81.30
47382;DHT22;33128;51.580;5.170;2023-06-10T12:35:51;32.80;81.20
47382;DHT22;33128;51.580;5.170;2023-06-10T12:38:23;32.90;80.10
47382;DHT22;33128;51.580;5.170;2023-06-10T12:40:50;33.00;79.80
47382;DHT22;33128;51.580;5.170;2023-06-10T12:43:25;33.10;79.50
47382;DHT22;33128;51.580;5.170;2023-06-10T12:45:51;33.10;79.10
47382;DHT22;33128;51.580;5.170;2023-06-10T12:48:24;33.50;78.70
47382;DHT22;33128;51.580;5.170;2023-06-10T12:50:54;33.40;78.30
47382;DHT22;33128;51.580;5.170;2023-06-10T12:53:20;33.60;77.80
47382;DHT22;33128;51.580;5.170;2023-06-10T12:55:46;33.60;76.80
47382;DHT22;33128;51.580;5.170;2023-06-10T12:58:12;33.60;77.00
47382;DHT22;33128;51.580;5.170;2023-06-10T13:00:39;33.50;76.30
47382;DHT22;33128;51.580;5.170;2023-06-10T13:03:05;33.70;75.80
47382;DHT22;33128;51.580;5.170;2023-06-10T13:05:32;33.80;75.70
47382;DHT22;33128;51.580;5.170;2023-06-10T13:07:59;33.80;74.90
47382;DHT22;33128;51.580;5.170;2023-06-10T13:10:25;33.90;75.00
47382;DHT22;33128;51.580;5.170;2023-06-10T13:12:51;33.90;74.80
47382;DHT22;33128;51.580;5.170;2023-06-10T13:15:17;33.80;74.50
47382;DHT22;33128;51.580;5.170;2023-06-10T13:17:44;33.70;74.20
47382;DHT22;33128;51.580;5.170;2023-06-10T13:20:11;33.70;73.90
47382;DHT22;33128;51.580;5.170;2023-06-10T13:22:36;33.60;73.70
47382;DHT22;33128;51.580;5.170;2023-06-10T13:25:03;33.60;73.80
47382;DHT22;33128;51.580;5.170;2023-06-10T13:27:29;33.60;73.70
47382;DHT22;33128;51.580;5.170;2023-06-10T13:29:55;33.50;73.30
47382;DHT22;33128;51.580;5.170;2023-06-10T13:32:20;33.50;72.80
47382;DHT22;33128;51.580;5.170;2023-06-10T13:34:46;33.50;72.90
47382;DHT22;33128;51.580;5.170;2023-06-10T13:37:12;33.40;72.70
47382;DHT22;33128;51.580;5.170;2023-06-10T13:39:42;33.40;72.80
47382;DHT22;33128;51.580;5.170;2023-06-10T13:42:08;33.30;73.00
47382;DHT22;33128;51.580;5.170;2023-06-10T13:44:34;33.10;73.00
47382;DHT22;33128;51.580;5.170;2023-06-10T13:47:05;33.00;73.00
47382;DHT22;33128;51.580;5.170;2023-06-10T13:49:30;32.90;73.00
47382;DHT22;33128;51.580;5.170;2023-06-10T13:51:56;32.90;73.20
47382;DHT22;33128;51.580;5.170;2023-06-10T13:54:22;32.70;73.20
47382;DHT22;33128;51.580;5.170;2023-06-10T13:56:48;32.70;73.10
47382;DHT22;33128;51.580;5.170;2023-06-10T13:59:13;32.70;73.40
47382;DHT22;33128;51.580;5.170;2023-06-10T14:01:39;32.60;73.00
47382;DHT22;33128;51.580;5.170;2023-06-10T14:04:06;32.60;73.20
47382;DHT22;33128;51.580;5.170;2023-06-10T14:06:32;32.50;73.40
47382;DHT22;33128;51.580;5.170;2023-06-10T14:08:59;32.40;74.10
47382;DHT22;33128;51.580;5.170;2023-06-10T14:11:25;32.30;73.60
47382;DHT22;33128;51.580;5.170;2023-06-10T14:13:50;32.20;74.20
47382;DHT22;33128;51.580;5.170;2023-06-10T14:16:16;32.10;73.80
47382;DHT22;33128;51.580;5.170;2023-06-10T14:18:42;32.10;73.50
47382;DHT22;33128;51.580;5.170;2023-06-10T14:21:07;32.00;74.50
47382;DHT22;33128;51.580;5.170;2023-06-10T14:23:33;31.90;73.80
47382;DHT22;33128;51.580;5.170;2023-06-10T14:25:59;31.80;74.00
47382;DHT22;33128;51.580;5.170;2023-06-10T14:28:24;31.70;73.90
47382;DHT22;33128;51.580;5.170;2023-06-10T14:30:51;31.70;73.90
47382;DHT22;33128;51.580;5.170;2023-06-10T14:33:18;31.70;74.00
47382;DHT22;33128;51.580;5.170;2023-06-10T14:35:43;31.70;73.70
47382;DHT22;33128;51.580;5.170;2023-06-10T14:38:09;31.60;75.10
47382;DHT22;33128;51.580;5.170;2023-06-10T14:40:35;31.60;74.40
47382;DHT22;33128;51.580;5.170;2023-06-10T14:43:01;31.40;74.50
47382;DHT22;33128;51.580;5.170;2023-06-10T14:45:29;31.30;75.40
47382;DHT22;33128;51.580;5.170;2023-06-10T14:47:55;31.30;74.90
47382;DHT22;33128;51.580;5.170;2023-06-10T14:50:20;31.20;75.20
47382;DHT22;33128;51.580;5.170;2023-06-10T14:52:46;31.20;75.20
47382;DHT22;33128;51.580;5.170;2023-06-10T14:55:11;31.00;75.40
47382;DHT22;33128;51.580;5.170;2023-06-10T14:57:37;30.80;75.60
47382;DHT22;33128;51.580;5.170;2023-06-10T15:00:03;30.40;76.10
47382;DHT22;33128;51.580;5.170;2023-06-10T15:02:29;30.30;76.70
47382;DHT22;33128;51.580;5.170;2023-06-10T15:04:54;29.60;77.80
47382;DHT22;33128;51.580;5.170;2023-06-10T15:07:23;29.00;79.90
47382;DHT22;33128;51.580;5.170;2023-06-10T15:09:48;28.80;80.20
47382;DHT22;33128;51.580;5.170;2023-06-10T15:12:14;29.40;79.20
47382;DHT22;33128;51.580;5.170;2023-06-10T15:14:39;29.60;79.10
47382;DHT22;33128;51.580;5.170;2023-06-10T15:17:05;29.80;79.90
47382;DHT22;33128;51.580;5.170;2023-06-10T15:19:31;29.90;79.10
47382;DHT22;33128;51.580;5.170;2023-06-10T15:21:56;29.90;79.20
47382;DHT22;33128;51.580;5.170;2023-06-10T15:24:22;30.00;79.10
47382;DHT22;33128;51.580;5.170;2023-06-10T15:26:56;29.80;79.50
47382;DHT22;33128;51.580;5.170;2023-06-10T15:29:22;29.80;79.40
47382;DHT22;33128;51.580;5.170;2023-06-10T15:31:47;29.80;79.60
47382;DHT22;33128;51.580;5.170;2023-06-10T15:34:13;29.80;79.40
47382;DHT22;33128;51.580;5.170;2023-06-10T15:36:38;29.60;79.70
47382;DHT22;33128;51.580;5.170;2023-06-10T15:39:05;29.60;79.60
47382;DHT22;33128;51.580;5.170;2023-06-10T15:41:33;29.50;79.60
47382;DHT22;33128;51.580;5.170;2023-06-10T15:43:59;29.50;80.60
47382;DHT22;33128;51.580;5.170;2023-06-10T15:46:29;29.40;80.10
47382;DHT22;33128;51.580;5.170;2023-06-10T15:48:55;29.40;79.90